Time;durP1;ratioP1;P1;durP2;ratioP2;P2;SDS_P1;SDS_P2;PMS_P1;PMS_P2;Temp;Humidity;BMP_temperature;BMP_pressure;BME280_temperature;BME280_humidity;BME280_pressure;Samples;Min_cycle;Max_cycle;Signal;HPM_P1;HPM_P2
2022/12/26 03:21:16;;;;;;;20.02;14.98;;;13.20;72.20;;;;;;5856602;23;20853;-73
2022/12/26 03:23:45;;;;;;;19.33;15.15;;;13.20;72.40;;;;;;4892922;29;20056;-74
2022/12/26 03:26:39;;;;;;;19.40;14.52;;;13.20;72.60;;;;;;4900264;29;20139;-74
2022/12/26 03:32:20;;;;;;;20.58;12.95;;;13.20;72.60;;;;;;4842372;29;19999;-74
2022/12/26 03:34:45;;;;;;;23.98;14.23;;;13.30;72.80;;;;;;4827239;29;20506;-75
2022/12/26 03:37:42;;;;;;;22.02;14.05;;;13.30;72.90;;;;;;4853744;29;20111;-74
2022/12/26 04:19:26;;;;;;;14.13;10.95;;;13.50;72.60;;;;;;4876663;29;20051;-78
2022/12/26 04:46:19;;;;;;;15.93;11.90;;;13.50;72.60;;;;;;4891174;29;20040;-82
2022/12/26 04:51:34;;;;;;;17.73;12.65;;;13.60;72.70;;;;;;4899861;29;20497;-82
2022/12/26 04:54:00;;;;;;;16.92;12.10;;;13.60;72.60;;;;;;4894139;29;20047;-80
2022/12/26 04:56:26;;;;;;;19.02;12.68;;;13.60;72.60;;;;;;4879343;29;20045;-81
2022/12/26 04:58:51;;;;;;;19.17;11.65;;;13.60;72.60;;;;;;4879836;29;20043;-81
2022/12/26 05:13:01;;;;;;;15.05;11.88;;;13.60;72.40;;;;;;4882689;29;20119;-81
2022/12/26 05:15:27;;;;;;;14.70;11.35;;;13.60;72.40;;;;;;4861284;29;20458;-81
2022/12/26 05:29:10;;;;;;;16.45;11.45;;;13.50;72.10;;;;;;4902978;29;19919;-81
2022/12/26 05:31:36;;;;;;;13.60;10.48;;;13.60;72.30;;;;;;4862130;29;20468;-78
2022/12/26 05:34:06;;;;;;;16.48;11.65;;;13.60;72.50;;;;;;4893205;29;20060;-78
2022/12/26 05:36:45;;;;;;;13.98;9.32;;;13.60;72.70;;;;;;4910372;29;20123;-83
2022/12/26 05:39:11;;;;;;;13.55;9.00;;;13.70;72.60;;;;;;4871525;29;20049;-79
2022/12/26 05:41:39;;;;;;;13.63;8.82;;;13.80;72.50;;;;;;4883276;29;20339;-80
2022/12/26 05:44:05;;;;;;;12.48;7.93;;;13.90;72.30;;;;;;4884157;29;20365;-73
2022/12/26 05:46:32;;;;;;;14.50;8.80;;;14.10;72.40;;;;;;4882459;29;20424;-77
2022/12/26 05:48:57;;;;;;;13.35;7.88;;;14.30;72.40;;;;;;4897400;29;20045;-75
2022/12/26 05:51:24;;;;;;;16.30;8.02;;;14.40;72.30;;;;;;4880559;29;20104;-80
2022/12/26 05:53:50;;;;;;;13.80;7.53;;;14.60;72.20;;;;;;4879370;29;20343;-80
2022/12/26 05:56:17;;;;;;;11.45;6.78;;;14.70;72.20;;;;;;4882259;29;20480;-78
2022/12/26 05:58:44;;;;;;;12.43;6.53;;;14.80;72.30;;;;;;4882017;29;20061;-75
2022/12/26 06:01:11;;;;;;;11.60;7.18;;;14.90;72.10;;;;;;4882440;29;20045;-78
2022/12/26 06:07:11;;;;;;;9.50;6.05;;;14.90;72.20;;;;;;4894829;29;20052;-80
2022/12/26 06:09:43;;;;;;;10.90;5.93;;;15.00;72.30;;;;;;4895694;29;20048;-78
2022/12/26 06:12:30;;;;;;;8.27;5.00;;;15.00;72.30;;;;;;4882329;29;20060;-78
2022/12/26 06:14:55;;;;;;;12.73;5.53;;;15.10;72.30;;;;;;4896563;29;20058;-84
2022/12/26 06:17:21;;;;;;;10.07;5.40;;;15.10;72.50;;;;;;4878333;29;20124;-82
2022/12/26 06:19:47;;;;;;;20.40;5.90;;;15.10;70.70;;;;;;4882263;29;20076;-77
2022/12/26 06:22:20;;;;;;;16.80;5.63;;;15.00;72.20;;;;;;4902145;29;20048;-80
2022/12/26 06:24:55;;;;;;;19.33;5.82;;;15.00;71.80;;;;;;4869120;29;20052;-82
2022/12/26 06:27:21;;;;;;;13.40;5.38;;;15.10;72.30;;;;;;4884372;29;20048;-77
2022/12/26 06:29:46;;;;;;;12.65;5.10;;;15.10;71.90;;;;;;4901212;29;20036;-76
2022/12/26 06:32:12;;;;;;;21.70;5.22;;;15.20;72.10;;;;;;4900414;29;20063;-77
2022/12/26 06:34:38;;;;;;;10.80;4.05;;;15.20;72.10;;;;;;4884255;29;20116;-78
2022/12/26 06:37:03;;;;;;;14.00;4.93;;;15.30;72.20;;;;;;4900883;29;20052;-78
2022/12/26 06:39:29;;;;;;;12.40;3.90;;;15.40;72.20;;;;;;4901034;29;20446;-77
2022/12/26 06:41:55;;;;;;;11.73;3.60;;;15.50;72.20;;;;;;4900779;29;20059;-78
2022/12/26 06:44:23;;;;;;;9.63;3.85;;;15.70;72.10;;;;;;4884529;29;20135;-77
2022/12/26 06:46:49;;;;;;;9.57;3.58;;;15.80;71.90;;;;;;4900729;29;20350;-76
2022/12/26 06:49:15;;;;;;;15.02;4.15;;;15.90;71.60;;;;;;4883553;29;20063;-80
2022/12/26 06:51:43;;;;;;;15.23;3.90;;;15.60;71.80;;;;;;4901226;29;20140;-79
2022/12/26 06:54:09;;;;;;;20.20;3.63;;;15.70;71.80;;;;;;4900457;29;20168;-78
2022/12/26 06:56:36;;;;;;;8.93;3.17;;;15.80;72.10;;;;;;4900289;29;20103;-79
2022/12/26 06:59:05;;;;;;;11.70;2.72;;;15.90;72.00;;;;;;4884183;29;20063;-78
2022/12/26 07:01:33;;;;;;;13.32;2.90;;;16.00;72.10;;;;;;4900778;29;20052;-78
2022/12/26 07:03:59;;;;;;;13.52;3.33;;;16.00;71.20;;;;;;4884166;29;20463;-76
2022/12/26 07:06:31;;;;;;;18.02;3.28;;;16.10;71.80;;;;;;4900547;29;20056;-77
2022/12/26 07:09:06;;;;;;;12.38;3.38;;;16.10;71.90;;;;;;4900838;29;20114;-78
2022/12/26 07:11:34;;;;;;;11.93;2.90;;;16.10;71.90;;;;;;4900089;29;20060;-79
2022/12/26 07:14:00;;;;;;;14.32;3.17;;;16.10;71.80;;;;;;4900760;29;20044;-78
2022/12/26 07:16:26;;;;;;;11.95;3.00;;;16.10;69.80;;;;;;4899567;29;20365;-76
2022/12/26 07:18:54;;;;;;;11.85;2.75;;;16.00;71.60;;;;;;4900354;29;20059;-77
2022/12/26 07:21:20;;;;;;;11.13;3.35;;;16.10;71.80;;;;;;4900137;29;20072;-79
2022/12/26 07:23:46;;;;;;;9.90;2.67;;;16.10;71.50;;;;;;4899748;29;20049;-79
2022/12/26 07:26:11;;;;;;;12.48;3.10;;;16.00;71.20;;;;;;4900732;29;20059;-77
2022/12/26 07:28:37;;;;;;;9.05;3.38;;;16.00;71.20;;;;;;4878569;29;20253;-78
2022/12/26 07:31:03;;;;;;;15.10;3.25;;;16.00;71.40;;;;;;4882854;29;20053;-81
2022/12/26 07:33:29;;;;;;;9.30;3.03;;;16.00;71.50;;;;;;4881260;29;20076;-78
2022/12/26 07:36:00;;;;;;;13.40;3.42;;;15.90;71.80;;;;;;4864992;29;20106;-84
2022/12/26 07:38:32;;;;;;;10.07;3.05;;;15.90;70.90;;;;;;4859568;29;20386;-81
2022/12/26 07:40:58;;;;;;;12.85;4.15;;;15.90;71.20;;;;;;4896868;29;20403;-77
2022/12/26 07:43:25;;;;;;;6.57;2.35;;;15.80;71.00;;;;;;4899945;29;20030;-79
2022/12/26 07:45:52;;;;;;;10.00;3.13;;;15.80;71.10;;;;;;4899807;29;20064;-77
2022/12/26 07:48:28;;;;;;;11.02;3.03;;;15.70;71.00;;;;;;4899908;29;20075;-79
2022/12/26 07:50:54;;;;;;;11.48;2.88;;;15.70;71.10;;;;;;4900086;29;20107;-78
2022/12/26 07:53:20;;;;;;;7.93;2.40;;;15.30;69.20;;;;;;4899665;29;20470;-78
2022/12/26 07:55:47;;;;;;;8.23;2.58;;;15.20;70.30;;;;;;4899729;29;20049;-78
2022/12/26 07:58:12;;;;;;;8.80;2.53;;;15.10;70.70;;;;;;4899663;29;20055;-83
2022/12/26 08:00:38;;;;;;;13.00;3.38;;;15.10;72.00;;;;;;4897130;29;20056;-78
2022/12/26 08:03:04;;;;;;;9.90;2.88;;;15.20;72.30;;;;;;4899384;29;20045;-80
2022/12/26 08:05:29;;;;;;;10.98;3.25;;;15.30;72.30;;;;;;4899046;29;20048;-77
2022/12/26 08:07:55;;;;;;;10.18;3.53;;;15.30;71.90;;;;;;4899587;29;20049;-72
2022/12/26 08:10:22;;;;;;;12.27;2.97;;;15.30;71.60;;;;;;4897367;29;20486;-78
2022/12/26 08:12:47;;;;;;;10.93;2.70;;;15.30;71.20;;;;;;4894855;29;20057;-74
2022/12/26 08:15:13;;;;;;;9.20;3.03;;;15.30;71.00;;;;;;4894806;29;20124;-75
2022/12/26 08:17:39;;;;;;;7.68;2.47;;;15.30;70.60;;;;;;4889740;29;20045;-77
2022/12/26 08:20:05;;;;;;;7.15;2.80;;;15.30;70.10;;;;;;4889246;29;20037;-75
2022/12/26 08:22:31;;;;;;;7.90;2.90;;;15.30;69.80;;;;;;4890357;29;20052;-78
2022/12/26 08:25:02;;;;;;;7.60;3.08;;;15.30;69.50;;;;;;4872919;29;20056;-82
2022/12/26 08:27:49;;;;;;;8.35;2.97;;;15.20;69.20;;;;;;4857531;29;20041;-82
2022/12/26 08:30:15;;;;;;;5.32;2.78;;;15.20;69.10;;;;;;4894179;29;20450;-78
2022/12/26 08:32:41;;;;;;;6.15;2.97;;;15.20;68.90;;;;;;4893408;29;20037;-81
2022/12/26 08:35:07;;;;;;;7.70;3.20;;;15.10;68.70;;;;;;4892910;29;20044;-77
2022/12/26 08:37:33;;;;;;;8.90;2.80;;;15.10;68.70;;;;;;4893990;29;20036;-74
2022/12/26 08:39:58;;;;;;;4.93;2.20;;;15.00;68.70;;;;;;4893002;29;20060;-74
2022/12/26 08:42:24;;;;;;;6.22;2.47;;;15.00;69.00;;;;;;4892099;29;20056;-79
2022/12/26 08:44:50;;;;;;;9.05;2.58;;;15.00;69.10;;;;;;4893754;29;20032;-74
2022/12/26 08:47:16;;;;;;;6.72;2.60;;;15.00;69.20;;;;;;4894049;29;20048;-75
2022/12/26 08:49:42;;;;;;;7.57;2.10;;;15.00;69.10;;;;;;4893016;29;20468;-76
2022/12/26 08:52:08;;;;;;;4.75;1.98;;;15.00;69.10;;;;;;4891931;29;20045;-76
2022/12/26 08:54:34;;;;;;;3.47;2.00;;;15.10;69.30;;;;;;4893777;29;20112;-76
2022/12/26 08:56:59;;;;;;;6.28;2.65;;;15.10;69.30;;;;;;4892730;29;20392;-77
2022/12/26 08:59:25;;;;;;;7.88;2.40;;;15.10;69.20;;;;;;4891411;29;20083;-75
2022/12/26 09:01:51;;;;;;;9.43;2.40;;;15.10;69.30;;;;;;4891423;29;20083;-79
2022/12/26 09:04:16;;;;;;;4.07;1.88;;;15.10;69.40;;;;;;4893261;29;20104;-80
2022/12/26 09:06:42;;;;;;;5.95;1.92;;;15.10;69.50;;;;;;4892904;29;20049;-79
2022/12/26 09:09:28;;;;;;;7.30;2.22;;;15.10;69.60;;;;;;4902434;29;20044;-83
2022/12/26 09:11:54;;;;;;;9.52;2.50;;;15.20;69.70;;;;;;4902033;29;20048;-83
2022/12/26 09:14:20;;;;;;;5.53;1.92;;;15.10;69.70;;;;;;4891043;29;20052;-80
2022/12/26 09:16:46;;;;;;;6.03;2.00;;;15.10;69.70;;;;;;4901050;29;20040;-80
2022/12/26 09:19:15;;;;;;;5.03;1.42;;;15.10;69.80;;;;;;4885877;29;20051;-81
2022/12/26 09:21:42;;;;;;;8.13;2.03;;;15.10;69.80;;;;;;4870261;29;20044;-79
2022/12/26 09:24:13;;;;;;;6.00;1.65;;;15.10;69.90;;;;;;4882366;29;20569;-81
2022/12/26 09:26:39;;;;;;;6.97;1.77;;;15.20;70.00;;;;;;4884906;29;20157;-81
2022/12/26 09:29:05;;;;;;;5.55;1.50;;;15.20;70.10;;;;;;4872854;29;20186;-79
2022/12/26 09:31:33;;;;;;;6.00;1.55;;;15.20;70.10;;;;;;4876761;29;20052;-83
2022/12/26 09:34:04;;;;;;;6.68;1.88;;;15.20;70.20;;;;;;4874591;29;20123;-80
2022/12/26 09:36:34;;;;;;;4.35;1.20;;;15.20;70.20;;;;;;4876884;29;20059;-80
2022/12/26 09:39:00;;;;;;;4.63;1.50;;;15.20;70.20;;;;;;4890386;29;20072;-79
2022/12/26 09:41:47;;;;;;;4.97;1.35;;;15.20;70.20;;;;;;4891507;29;20131;-83
2022/12/26 09:44:19;;;;;;;4.65;1.10;;;15.20;70.20;;;;;;4879873;29;20053;-79
2022/12/26 09:47:09;;;;;;;6.82;1.45;;;15.20;70.10;;;;;;4901858;29;20520;-83
2022/12/26 09:49:44;;;;;;;6.65;1.83;;;15.20;70.10;;;;;;4900907;29;20105;-79
2022/12/26 09:52:15;;;;;;;7.20;1.25;;;15.20;70.20;;;;;;4901182;29;20063;-81
2022/12/26 09:54:53;;;;;;;6.55;2.33;;;15.20;70.20;;;;;;4885605;29;20144;-80
2022/12/26 09:57:41;;;;;;;7.38;1.38;;;15.20;70.10;;;;;;4885492;29;20446;-82
2022/12/26 10:00:18;;;;;;;7.03;1.42;;;15.20;70.10;;;;;;4885421;29;20059;-81
2022/12/26 10:02:51;;;;;;;4.25;1.25;;;15.20;70.30;;;;;;4884438;29;20045;-79
2022/12/26 10:05:17;;;;;;;6.20;1.60;;;15.20;70.30;;;;;;4885452;29;20131;-79
2022/12/26 10:07:53;;;;;;;5.97;1.23;;;15.20;70.40;;;;;;4885648;29;20293;-80
2022/12/26 10:10:25;;;;;;;7.60;2.17;;;15.20;70.00;;;;;;4901531;29;20112;-81
2022/12/26 10:12:57;;;;;;;6.22;1.40;;;15.10;69.60;;;;;;4901512;29;20084;-79
2022/12/26 10:15:47;;;;;;;7.13;1.48;;;15.00;69.50;;;;;;4884630;29;20487;-79
2022/12/26 10:18:29;;;;;;;5.93;1.40;;;15.00;69.80;;;;;;4885315;29;20056;-80
2022/12/26 10:21:40;;;;;;;5.43;1.45;;;15.00;70.10;;;;;;4885018;29;20060;-81
2022/12/26 10:24:11;;;;;;;4.60;1.10;;;15.00;70.00;;;;;;4871980;29;20064;-77
2022/12/26 10:26:48;;;;;;;4.15;1.00;;;15.00;70.00;;;;;;4899673;29;20044;-83
2022/12/26 10:29:22;;;;;;;7.95;1.80;;;15.00;69.90;;;;;;4868721;29;20048;-83
2022/12/26 10:31:55;;;;;;;9.40;1.88;;;15.00;69.90;;;;;;4884480;29;20454;-83
2022/12/26 10:34:40;;;;;;;4.63;0.93;;;15.00;70.00;;;;;;4883122;29;20048;-82
2022/12/26 10:37:20;;;;;;;6.07;1.77;;;15.00;70.20;;;;;;4883403;29;20132;-81
2022/12/26 10:40:07;;;;;;;6.28;1.60;;;15.00;70.10;;;;;;4884314;29;20041;-81
2022/12/26 10:43:13;;;;;;;5.20;0.95;;;15.00;70.40;;;;;;4900368;29;20089;-85
2022/12/26 10:46:24;;;;;;;6.25;1.30;;;15.00;70.50;;;;;;4794797;29;20400;-84
2022/12/26 10:48:52;;;;;;;6.40;1.63;;;15.00;70.70;;;;;;4883836;29;20112;-81
2022/12/26 10:51:18;;;;;;;6.75;1.42;;;15.00;70.40;;;;;;4867684;29;20531;-80
2022/12/26 10:53:50;;;;;;;6.82;2.17;;;15.00;70.60;;;;;;4868711;29;20436;-80
2022/12/26 10:56:16;;;;;;;5.65;0.98;;;15.00;70.50;;;;;;4884146;29;20423;-81
2022/12/26 10:58:43;;;;;;;6.53;1.33;;;15.00;70.60;;;;;;4883870;29;20476;-75
2022/12/26 11:01:27;;;;;;;7.70;1.67;;;15.00;70.80;;;;;;4888728;29;20103;-75
2022/12/26 11:03:55;;;;;;;5.75;1.23;;;15.00;71.10;;;;;;4880510;29;20056;-77
2022/12/26 11:06:23;;;;;;;7.30;1.13;;;15.00;70.80;;;;;;4882391;29;20411;-77
2022/12/26 11:08:50;;;;;;;6.07;1.10;;;15.00;70.80;;;;;;4891816;29;20115;-77
2022/12/26 11:11:44;;;;;;;5.72;1.25;;;15.00;70.80;;;;;;4900535;29;20056;-80
2022/12/26 11:14:28;;;;;;;;;;;15.00;71.10;;;;;;4900662;29;20036;-78
2022/12/26 11:16:57;;;;;;;6.13;1.17;;;15.00;71.50;;;;;;4884047;29;20256;-82
2022/12/26 11:19:35;;;;;;;9.60;1.05;;;15.00;71.60;;;;;;4883882;29;20120;-79
2022/12/26 11:22:22;;;;;;;8.68;1.58;;;15.00;72.50;;;;;;4900120;29;20049;-73
2022/12/26 11:25:06;;;;;;;10.35;2.28;;;15.00;69.50;;;;;;4900195;29;20063;-74
2022/12/26 11:27:32;;;;;;;;;;;14.90;66.50;;;;;;4900107;29;20419;-75
2022/12/26 11:30:12;;;;;;;10.48;1.88;;;14.70;66.30;;;;;;4899669;29;19933;-74
2022/12/26 11:32:43;;;;;;;11.85;2.22;;;14.60;65.90;;;;;;4900077;29;20080;-75
2022/12/26 11:35:23;;;;;;;11.27;2.00;;;14.50;65.90;;;;;;4899820;29;20044;-75
2022/12/26 11:37:57;;;;;;;14.23;2.40;;;14.60;65.90;;;;;;4900531;29;20063;-78
2022/12/26 11:40:27;;;;;;;12.00;2.33;;;14.50;66.30;;;;;;4900074;29;20135;-76
2022/12/26 11:42:59;;;;;;;13.27;2.33;;;14.50;68.00;;;;;;4899633;29;20461;-75
2022/12/26 11:45:30;;;;;;;10.15;2.25;;;14.60;69.60;;;;;;4899656;29;20457;-77
2022/12/26 11:47:58;;;;;;;8.98;2.13;;;14.70;69.70;;;;;;4900028;29;20044;-75
2022/12/26 11:50:27;;;;;;;9.45;2.63;;;14.70;66.40;;;;;;4883566;29;20057;-74
2022/12/26 11:52:56;;;;;;;13.98;2.08;;;14.60;62.30;;;;;;4899689;29;20473;-75
2022/12/26 11:55:26;;;;;;;14.73;2.13;;;14.50;61.30;;;;;;4899564;29;20052;-75
2022/12/26 11:57:56;;;;;;;19.33;3.65;;;14.40;62.70;;;;;;4899357;29;20494;-74
2022/12/26 12:00:23;;;;;;;20.48;3.88;;;14.50;67.80;;;;;;4899966;29;20385;-76
2022/12/26 12:02:49;;;;;;;17.50;3.35;;;14.60;71.00;;;;;;4901171;29;20063;-77
2022/12/26 12:05:27;;;;;;;16.48;3.05;;;14.70;72.30;;;;;;4887056;29;20052;-76
2022/12/26 12:08:04;;;;;;;16.92;3.70;;;14.90;70.60;;;;;;4903325;29;20044;-75
2022/12/26 12:11:10;;;;;;;22.67;3.55;;;15.00;72.00;;;;;;4886931;29;20423;-78
2022/12/26 12:14:20;;;;;;;16.00;3.17;;;15.20;71.60;;;;;;4903763;29;20407;-74
2022/12/26 12:17:18;;;;;;;14.02;2.80;;;15.30;71.40;;;;;;4903179;29;20065;-74
2022/12/26 12:20:12;;;;;;;12.45;3.03;;;15.40;71.60;;;;;;4887142;29;20232;-76
2022/12/26 12:23:15;;;;;;;8.65;2.35;;;15.50;71.60;;;;;;4903546;29;20119;-77
2022/12/26 12:25:56;;;;;;;12.10;2.90;;;15.50;71.70;;;;;;4886907;29;20123;-75
2022/12/26 12:28:46;;;;;;;15.32;2.53;;;15.50;71.80;;;;;;4903210;29;20057;-75
2022/12/26 12:31:12;;;;;;;11.77;2.20;;;15.50;72.10;;;;;;4886349;29;20045;-76
2022/12/26 12:34:08;;;;;;;9.95;2.83;;;15.60;72.00;;;;;;4903125;29;20139;-74
2022/12/26 12:36:57;;;;;;;14.25;2.97;;;15.50;72.20;;;;;;4867205;29;20072;-76
2022/12/26 12:39:50;;;;;;;14.55;2.75;;;15.60;72.30;;;;;;4881240;29;20437;-76
2022/12/26 12:42:38;;;;;;;11.50;2.60;;;15.50;72.30;;;;;;4903547;29;20127;-75
2022/12/26 12:45:22;;;;;;;10.00;2.25;;;15.60;72.40;;;;;;4886079;29;20060;-76
2022/12/26 12:48:08;;;;;;;15.15;2.15;;;15.60;72.50;;;;;;4902584;29;20466;-73
2022/12/26 12:50:53;;;;;;;14.75;2.65;;;15.60;72.70;;;;;;4902812;29;20063;-73
2022/12/26 12:53:55;;;;;;;12.73;1.95;;;15.60;71.60;;;;;;4902909;29;20059;-75
2022/12/26 12:58:13;;;;;;;10.02;1.90;;;15.50;69.80;;;;;;5133454;27;20359;-75
2022/12/26 13:00:47;;;;;;;18.55;2.78;;;15.50;70.00;;;;;;5111607;28;20044;-75
2022/12/26 13:03:35;;;;;;;18.08;2.65;;;15.50;69.20;;;;;;5098140;28;20459;-78
2022/12/26 13:06:26;;;;;;;15.27;2.55;;;15.50;69.10;;;;;;5094635;28;20050;-78
2022/12/26 13:09:01;;;;;;;12.77;2.17;;;15.50;68.80;;;;;;5092252;28;20059;-76
2022/12/26 13:11:46;;;;;;;16.77;2.85;;;15.50;69.10;;;;;;5093011;28;20059;-78
2022/12/26 13:14:18;;;;;;;21.15;3.25;;;15.50;67.30;;;;;;5092698;28;20135;-77
2022/12/26 13:16:49;;;;;;;16.10;3.30;;;15.50;66.80;;;;;;5091794;28;20066;-78
2022/12/26 13:19:19;;;;;;;18.20;3.08;;;15.50;66.40;;;;;;5092357;28;20487;-75
2022/12/26 13:21:47;;;;;;;15.35;2.97;;;15.50;66.20;;;;;;5092574;28;20320;-75
2022/12/26 13:24:40;;;;;;;21.30;2.42;;;15.40;66.10;;;;;;5092899;28;20052;-75
2022/12/26 13:27:23;;;;;;;12.50;2.20;;;15.50;66.40;;;;;;5105948;28;20378;-78
2022/12/26 13:29:49;;;;;;;16.35;2.22;;;15.40;66.30;;;;;;5112460;28;20056;-76
2022/12/26 13:32:28;;;;;;;13.50;2.55;;;15.40;66.40;;;;;;5095327;28;20430;-76
2022/12/26 13:34:56;;;;;;;14.85;2.80;;;15.40;66.40;;;;;;5112364;28;20062;-76
2022/12/26 13:37:37;;;;;;;10.10;2.38;;;15.40;66.40;;;;;;5112374;28;20046;-75
2022/12/26 13:40:06;;;;;;;10.90;2.10;;;15.40;66.40;;;;;;5112032;28;20188;-77
2022/12/26 13:45:36;;;;;;;8.90;2.58;;;15.30;66.40;;;;;;5111966;28;20134;-76
2022/12/26 13:48:25;;;;;;;12.70;2.78;;;15.30;66.40;;;;;;5111522;28;20090;-75
2022/12/26 13:51:02;;;;;;;9.60;1.85;;;15.30;66.40;;;;;;5112152;28;20054;-78
2022/12/26 13:53:31;;;;;;;7.22;1.75;;;15.30;66.40;;;;;;5112017;28;20043;-75
2022/12/26 13:56:17;;;;;;;9.40;2.47;;;15.30;66.40;;;;;;5089475;28;20106;-78
2022/12/26 13:59:11;;;;;;;10.02;1.40;;;15.30;66.30;;;;;;5090932;28;20055;-77
2022/12/26 14:01:57;;;;;;;17.33;2.72;;;15.30;66.10;;;;;;5057747;28;20048;-75
2022/12/26 14:04:38;;;;;;;6.68;2.08;;;15.30;66.10;;;;;;5091351;28;20059;-76
2022/12/26 14:07:22;;;;;;;9.07;2.20;;;15.30;65.90;;;;;;5091345;28;20384;-77
2022/12/26 14:09:47;;;;;;;;;;;15.30;65.80;;;;;;5078026;28;20355;-75
2022/12/26 14:12:23;;;;;;;9.73;1.67;;;15.30;66.10;;;;;;5059568;28;19920;-78
2022/12/26 14:15:07;;;;;;;6.30;1.55;;;15.30;66.00;;;;;;5077824;28;20048;-75
2022/12/26 14:18:04;;;;;;;7.07;1.15;;;15.30;66.00;;;;;;5059599;28;20048;-76
2022/12/26 14:20:55;;;;;;;7.70;1.77;;;15.30;66.00;;;;;;5077641;28;20064;-77
2022/12/26 14:23:44;;;;;;;6.65;1.88;;;15.30;65.90;;;;;;5077845;28;20052;-76
2022/12/26 14:26:12;;;;;;;11.30;2.17;;;15.30;66.00;;;;;;5082456;28;20032;-75
2022/12/26 14:29:09;;;;;;;9.02;1.65;;;15.30;66.30;;;;;;5097182;28;20040;-76
2022/12/26 14:31:53;;;;;;;5.85;1.33;;;15.30;66.30;;;;;;5097828;28;20044;-76
2022/12/26 14:34:43;;;;;;;5.30;1.40;;;15.30;66.40;;;;;;5097615;28;20450;-77
2022/12/26 14:37:27;;;;;;;6.22;1.42;;;15.30;66.60;;;;;;5097394;28;20044;-76
2022/12/26 14:40:15;;;;;;;6.55;1.25;;;15.30;66.90;;;;;;5097606;28;20051;-77
2022/12/26 14:43:12;;;;;;;5.25;1.63;;;15.30;67.10;;;;;;5097900;28;20311;-76
2022/12/26 14:45:51;;;;;;;6.10;1.10;;;15.30;67.20;;;;;;5073162;28;20051;-77
2022/12/26 14:48:17;;;;;;;6.43;1.73;;;15.30;67.20;;;;;;5066514;28;20059;-75
2022/12/26 14:50:49;;;;;;;6.55;1.35;;;15.20;67.00;;;;;;5076881;28;20048;-74
2022/12/26 14:53:26;;;;;;;7.65;1.52;;;15.20;66.80;;;;;;5076776;28;20048;-76
2022/12/26 14:56:02;;;;;;;9.10;1.50;;;15.20;66.70;;;;;;5060885;28;20052;-76
2022/12/26 14:58:37;;;;;;;6.85;1.30;;;15.20;66.90;;;;;;5060036;28;20063;-75
2022/12/26 15:01:11;;;;;;;6.90;1.55;;;15.20;67.00;;;;;;5077451;28;20086;-76
2022/12/26 15:04:02;;;;;;;11.45;2.28;;;15.20;67.00;;;;;;5086616;28;20524;-77
2022/12/26 15:06:54;;;;;;;8.35;1.50;;;15.20;66.90;;;;;;5086988;28;20048;-78
2022/12/26 15:09:34;;;;;;;7.05;1.20;;;15.20;66.90;;;;;;5071672;28;20115;-75
2022/12/26 15:12:52;;;;;;;8.05;1.17;;;15.10;67.00;;;;;;5082930;28;20044;-78
2022/12/26 15:15:55;;;;;;;9.43;1.77;;;15.10;66.70;;;;;;5076689;28;20127;-79
2022/12/26 15:18:41;;;;;;;6.50;1.23;;;15.10;66.70;;;;;;5089456;28;20043;-78
2022/12/26 15:21:15;;;;;;;10.52;1.30;;;15.10;66.80;;;;;;5095983;28;20056;-75
2022/12/26 15:24:05;;;;;;;6.10;1.15;;;15.20;66.90;;;;;;5096759;28;20070;-78
2022/12/26 15:26:56;;;;;;;7.63;1.55;;;15.30;67.00;;;;;;5091802;28;20036;-77
2022/12/26 15:29:33;;;;;;;5.57;1.08;;;15.40;67.10;;;;;;5074862;28;20056;-76
2022/12/26 15:32:17;;;;;;;6.00;1.20;;;15.40;67.00;;;;;;5076170;28;20363;-77
2022/12/26 15:34:59;;;;;;;7.60;1.52;;;15.40;67.00;;;;;;5075295;28;20040;-78
2022/12/26 15:37:43;;;;;;;8.45;2.17;;;15.50;67.10;;;;;;5045799;28;20044;-76
2022/12/26 15:40:24;;;;;;;10.18;1.60;;;15.50;67.10;;;;;;5090432;28;20043;-75
2022/12/26 15:43:14;;;;;;;8.10;1.40;;;15.60;67.10;;;;;;5107983;28;20047;-76
2022/12/26 15:45:56;;;;;;;7.47;1.52;;;15.60;67.10;;;;;;5082635;28;20500;-77
2022/12/26 15:48:35;;;;;;;10.90;1.90;;;15.60;67.10;;;;;;5058100;28;20150;-76
2022/12/26 15:51:13;;;;;;;10.90;1.42;;;15.60;67.10;;;;;;5070085;28;20079;-78
2022/12/26 15:53:53;;;;;;;12.00;1.92;;;15.70;67.80;;;;;;5085921;28;20052;-77
2022/12/26 15:56:38;;;;;;;6.93;1.65;;;15.70;67.10;;;;;;5076025;28;20426;-78
2022/12/26 15:59:23;;;;;;;7.38;1.58;;;15.80;67.00;;;;;;5040401;28;20082;-78
2022/12/26 16:01:52;;;;;;;8.65;1.13;;;15.90;67.00;;;;;;5098776;28;20462;-79
2022/12/26 16:04:39;;;;;;;6.30;1.17;;;16.00;66.80;;;;;;5116494;28;20051;-76
2022/12/26 16:07:30;;;;;;;4.70;0.88;;;16.10;66.70;;;;;;5116346;28;20433;-78
2022/12/26 16:09:57;;;;;;;7.20;1.50;;;16.20;66.60;;;;;;5075917;28;20471;-78
2022/12/26 16:12:29;;;;;;;6.70;1.15;;;16.20;66.40;;;;;;5081561;28;20112;-80
2022/12/26 16:15:09;;;;;;;7.15;1.08;;;16.30;66.30;;;;;;5099308;28;20047;-79
2022/12/26 16:17:37;;;;;;;9.65;1.55;;;16.40;66.20;;;;;;5095604;28;20366;-78
2022/12/26 16:23:27;;;;;;;15.55;1.42;;;16.50;66.10;;;;;;5057052;28;20070;-80
2022/12/26 16:25:55;;;;;;;11.70;1.88;;;16.50;66.10;;;;;;5094846;28;20040;-77
2022/12/26 16:28:29;;;;;;;9.50;1.70;;;16.50;66.30;;;;;;5095336;28;20052;-77
2022/12/26 16:30:56;;;;;;;14.82;2.00;;;16.50;66.30;;;;;;5095392;28;20052;-77
2022/12/26 16:33:22;;;;;;;11.48;2.28;;;16.50;66.50;;;;;;5095098;28;20147;-76
2022/12/26 16:35:50;;;;;;;14.07;1.52;;;16.50;66.60;;;;;;5094940;28;20054;-76
2022/12/26 16:38:20;;;;;;;10.68;1.60;;;16.50;66.60;;;;;;5077554;28;20059;-77
2022/12/26 16:40:50;;;;;;;10.60;1.52;;;16.50;66.60;;;;;;5095209;28;20127;-77
2022/12/26 16:43:35;;;;;;;8.40;1.38;;;16.50;66.70;;;;;;5073644;28;20056;-76
2022/12/26 16:46:04;;;;;;;6.20;1.55;;;16.50;66.40;;;;;;5074855;28;20050;-76
2022/12/26 16:48:32;;;;;;;11.07;2.45;;;16.40;65.30;;;;;;5074955;28;20044;-75
2022/12/26 16:51:01;;;;;;;13.07;1.40;;;16.40;64.50;;;;;;5074486;28;20068;-77
2022/12/26 16:53:35;;;;;;;12.70;1.50;;;16.40;64.30;;;;;;5074418;28;20053;-77
2022/12/26 16:56:42;;;;;;;13.73;2.10;;;16.30;64.30;;;;;;5074135;28;20087;-77
2022/12/26 16:59:21;;;;;;;11.77;2.17;;;16.30;63.70;;;;;;5066457;28;20040;-75
2022/12/26 17:01:54;;;;;;;14.15;2.47;;;16.20;63.90;;;;;;5090948;28;20078;-75
2022/12/26 17:04:23;;;;;;;16.35;2.75;;;16.10;63.40;;;;;;5075010;28;20047;-76
2022/12/26 17:07:14;;;;;;;12.93;1.70;;;16.10;63.40;;;;;;5079902;28;20056;-78
2022/12/26 17:09:48;;;;;;;13.75;1.95;;;16.10;63.50;;;;;;5074541;28;20090;-74
2022/12/26 17:12:19;;;;;;;;;;;16.10;64.10;;;;;;5076395;28;20039;-78
2022/12/26 17:14:47;;;;;;;12.63;2.25;;;16.10;64.30;;;;;;5075098;28;19921;-77
2022/12/26 17:17:22;;;;;;;12.25;2.08;;;16.00;64.60;;;;;;5074619;28;20413;-77
2022/12/26 17:19:50;;;;;;;15.23;2.75;;;16.00;64.70;;;;;;5073231;28;20076;-77
2022/12/26 17:22:32;;;;;;;16.75;2.75;;;16.00;64.20;;;;;;5057277;28;20044;-78
2022/12/26 17:25:23;;;;;;;8.38;1.65;;;16.00;63.60;;;;;;5074588;28;20398;-79
2022/12/26 17:28:14;;;;;;;10.68;2.20;;;15.90;63.60;;;;;;5074849;28;20052;-77
2022/12/26 17:30:52;;;;;;;8.88;1.90;;;15.90;62.60;;;;;;5074528;28;20059;-80
2022/12/26 17:33:22;;;;;;;11.88;2.03;;;15.80;60.50;;;;;;5074137;28;20049;-76
2022/12/26 17:35:56;;;;;;;34.45;5.00;;;15.80;58.30;;;;;;5074542;28;20375;-76
2022/12/26 17:38:26;;;;;;;29.08;3.58;;;15.70;58.60;;;;;;5074797;28;20490;-74
2022/12/26 17:40:57;;;;;;;23.55;3.97;;;15.50;59.70;;;;;;5074347;28;20048;-78
2022/12/26 17:43:28;;;;;;;25.08;4.25;;;15.40;60.40;;;;;;5075831;28;20098;-80
2022/12/26 17:45:54;;;;;;;29.60;4.15;;;15.40;60.60;;;;;;5078171;28;20036;-81
2022/12/26 17:48:20;;;;;;;20.52;2.67;;;15.40;60.90;;;;;;5078613;28;20036;-76
2022/12/26 17:50:48;;;;;;;20.10;2.95;;;15.30;61.20;;;;;;5077937;28;20051;-77
2022/12/26 17:53:35;;;;;;;16.25;3.38;;;15.30;61.40;;;;;;5060491;28;20048;-78
2022/12/26 17:56:03;;;;;;;17.60;3.28;;;15.30;61.70;;;;;;5077622;28;20529;-78
2022/12/26 17:58:29;;;;;;;16.88;3.60;;;15.30;61.80;;;;;;5060069;28;20132;-78
2022/12/26 18:00:56;;;;;;;10.88;2.08;;;15.30;61.80;;;;;;5078085;28;20127;-78
2022/12/26 18:03:22;;;;;;;19.13;2.47;;;15.30;61.90;;;;;;5078122;28;20052;-76
2022/12/26 18:05:48;;;;;;;9.80;2.40;;;15.40;62.10;;;;;;5078091;28;20426;-76
2022/12/26 18:08:29;;;;;;;16.17;2.40;;;15.30;62.20;;;;;;5077745;28;20045;-78
2022/12/26 18:10:55;;;;;;;9.75;2.55;;;15.40;62.30;;;;;;5092968;28;20040;-79
2022/12/26 18:13:21;;;;;;;10.88;2.38;;;15.30;62.40;;;;;;5080123;28;20525;-79
2022/12/26 18:15:47;;;;;;;15.77;2.55;;;15.30;62.50;;;;;;5098202;28;20040;-76
2022/12/26 18:18:21;;;;;;;8.48;1.90;;;15.30;62.60;;;;;;5098342;28;20354;-77
2022/12/26 18:20:49;;;;;;;11.18;2.08;;;15.30;62.80;;;;;;5083480;28;20056;-78
2022/12/26 18:23:15;;;;;;;8.00;2.42;;;15.20;63.20;;;;;;5077915;28;20087;-76
2022/12/26 18:25:40;;;;;;;15.00;1.95;;;15.00;63.00;;;;;;5060375;28;20080;-76